Time;durP1;ratioP1;P1;durP2;ratioP2;P2;SDS_P1;SDS_P2;PMS_P1;PMS_P2;Temp;Humidity;BMP_temperature;BMP_pressure;BME280_temperature;BME280_humidity;BME280_pressure;Samples;Min_cycle;Max_cycle;Signal;HPM_P1;HPM_P2
2021/03/23 00:01:52;;;;;;;14.13;6.90;;;8.30;97.20;;;;;;5052975;28;20208;-62
2021/03/23 00:04:18;;;;;;;14.20;6.93;;;8.40;97.20;;;;;;5052610;28;20210;-63
2021/03/23 00:06:44;;;;;;;12.03;7.00;;;8.40;97.20;;;;;;5052547;28;20238;-62
2021/03/23 00:09:10;;;;;;;13.10;7.10;;;8.40;97.20;;;;;;5052165;28;20232;-62
2021/03/23 00:11:39;;;;;;;14.10;7.63;;;8.40;97.20;;;;;;5052697;28;20205;-63
2021/03/23 00:14:07;;;;;;;12.43;7.10;;;8.40;97.30;;;;;;5052320;28;20209;-63
2021/03/23 00:16:35;;;;;;;11.43;6.53;;;8.30;97.30;;;;;;5052687;28;20332;-63
2021/03/23 00:19:02;;;;;;;17.50;7.10;;;8.30;97.30;;;;;;5052131;28;20212;-63
2021/03/23 00:21:29;;;;;;;12.07;7.17;;;8.30;97.40;;;;;;5052240;28;20271;-63
2021/03/23 00:23:56;;;;;;;12.73;7.37;;;8.30;97.30;;;;;;5052295;28;20214;-62
2021/03/23 00:26:23;;;;;;;11.73;7.23;;;8.30;97.30;;;;;;5052537;28;20222;-63
2021/03/23 00:28:52;;;;;;;11.93;7.30;;;8.30;97.50;;;;;;5051946;28;20271;-62
2021/03/23 00:31:22;;;;;;;11.00;6.80;;;8.20;97.60;;;;;;5052547;28;20202;-63
2021/03/23 00:33:48;;;;;;;13.47;8.07;;;8.20;97.70;;;;;;5053283;28;20210;-63
2021/03/23 00:36:19;;;;;;;15.23;7.40;;;8.20;97.80;;;;;;5053084;28;20231;-62
2021/03/23 00:38:45;;;;;;;13.13;7.57;;;8.20;97.80;;;;;;5053298;28;20212;-62
2021/03/23 00:41:11;;;;;;;12.03;7.20;;;8.20;97.80;;;;;;5053337;28;20209;-62
2021/03/23 00:43:38;;;;;;;13.03;6.97;;;8.20;97.80;;;;;;5053151;28;20217;-63
2021/03/23 00:46:05;;;;;;;12.73;6.93;;;8.20;97.80;;;;;;5052427;28;20592;-62
2021/03/23 00:48:31;;;;;;;13.57;7.03;;;8.20;98.10;;;;;;5052765;28;20659;-62
2021/03/23 00:50:58;;;;;;;12.47;7.13;;;8.20;97.80;;;;;;5052926;28;20205;-63
2021/03/23 00:53:25;;;;;;;13.47;6.97;;;8.20;97.80;;;;;;5052536;28;20209;-62
2021/03/23 00:55:51;;;;;;;10.00;7.13;;;8.20;97.80;;;;;;5052217;28;20241;-63
2021/03/23 00:58:18;;;;;;;15.17;7.30;;;8.20;97.80;;;;;;5052428;28;20206;-64
2021/03/23 01:00:44;;;;;;;12.93;7.47;;;8.20;97.90;;;;;;5052184;28;20427;-64
2021/03/23 01:03:10;;;;;;;16.27;7.63;;;8.20;97.90;;;;;;5051773;28;20206;-64
2021/03/23 01:05:37;;;;;;;11.30;7.27;;;8.30;97.90;;;;;;5051912;28;20233;-64
2021/03/23 01:08:05;;;;;;;11.30;7.20;;;8.30;97.80;;;;;;5051949;28;20217;-64
2021/03/23 01:10:33;;;;;;;11.43;7.13;;;8.20;97.90;;;;;;5052158;28;20201;-64
2021/03/23 01:13:00;;;;;;;14.80;7.73;;;8.20;98.00;;;;;;5051924;28;20212;-64
2021/03/23 01:15:30;;;;;;;12.40;7.13;;;8.20;98.00;;;;;;5052139;28;20213;-64
2021/03/23 01:17:56;;;;;;;12.67;7.60;;;8.20;98.10;;;;;;5052074;28;20693;-63
2021/03/23 01:20:24;;;;;;;13.37;7.13;;;8.20;98.10;;;;;;5052308;28;20240;-64
2021/03/23 01:22:50;;;;;;;11.77;7.60;;;8.20;98.10;;;;;;5052036;28;20254;-64
2021/03/23 01:25:17;;;;;;;10.07;7.27;;;8.20;98.00;;;;;;5051713;28;20681;-64
2021/03/23 01:27:48;;;;;;;11.63;7.40;;;8.20;98.00;;;;;;5051691;28;20229;-64
2021/03/23 01:30:16;;;;;;;14.63;7.43;;;8.20;98.00;;;;;;5051902;28;20259;-64
2021/03/23 01:32:43;;;;;;;15.37;7.47;;;8.30;98.20;;;;;;5051940;28;20209;-64
2021/03/23 01:35:10;;;;;;;14.27;7.43;;;8.20;98.30;;;;;;5051828;28;20216;-64
2021/03/23 01:37:36;;;;;;;13.07;7.57;;;8.20;98.50;;;;;;5051826;28;20202;-64
2021/03/23 01:40:03;;;;;;;15.67;7.90;;;8.20;98.60;;;;;;5051342;28;20596;-64
2021/03/23 01:42:40;;;;;;;14.63;7.57;;;8.20;98.80;;;;;;5052205;28;20225;-64
2021/03/23 01:45:19;;;;;;;12.73;7.23;;;8.20;98.90;;;;;;5051550;28;20573;-64
2021/03/23 01:47:46;;;;;;;13.97;7.00;;;8.20;98.80;;;;;;5051680;28;20229;-64
2021/03/23 01:50:13;;;;;;;14.93;7.57;;;8.20;98.90;;;;;;5051931;28;20584;-64
2021/03/23 01:52:41;;;;;;;13.20;7.40;;;8.20;99.00;;;;;;5052133;28;20232;-64
2021/03/23 01:55:09;;;;;;;12.27;7.30;;;8.20;99.10;;;;;;5051838;28;20202;-64
2021/03/23 01:57:38;;;;;;;14.23;7.80;;;8.20;99.10;;;;;;5051775;28;20201;-63
2021/03/23 02:00:08;;;;;;;10.17;7.50;;;8.20;99.10;;;;;;5051956;28;20646;-64
2021/03/23 02:02:36;;;;;;;9.63;6.77;;;8.20;99.10;;;;;;5052104;28;20209;-64
2021/03/23 02:05:03;;;;;;;8.87;6.80;;;8.30;99.10;;;;;;5051694;28;20206;-64
2021/03/23 02:07:29;;;;;;;11.00;7.47;;;8.30;99.10;;;;;;5051632;28;20237;-64
2021/03/23 02:09:57;;;;;;;10.73;7.40;;;8.20;99.10;;;;;;5051282;28;20206;-64
2021/03/23 02:12:29;;;;;;;12.60;7.50;;;8.20;99.10;;;;;;5051559;28;20343;-64
2021/03/23 02:14:56;;;;;;;11.10;7.17;;;8.20;99.10;;;;;;5051743;28;20210;-64
2021/03/23 02:17:28;;;;;;;11.70;7.60;;;8.20;99.10;;;;;;5055707;28;20295;-64
2021/03/23 02:19:58;;;;;;;10.80;7.37;;;8.20;99.10;;;;;;5055634;28;20348;-64
2021/03/23 02:22:29;;;;;;;12.27;7.60;;;8.20;99.10;;;;;;5055945;28;20202;-64
2021/03/23 02:24:56;;;;;;;14.93;8.50;;;8.20;99.10;;;;;;5055297;28;20209;-64
2021/03/23 02:27:24;;;;;;;13.50;8.20;;;8.10;99.00;;;;;;5055091;28;20221;-64
2021/03/23 02:29:53;;;;;;;13.53;8.00;;;8.10;99.20;;;;;;5054859;28;20210;-64
2021/03/23 02:32:19;;;;;;;13.10;7.83;;;8.10;99.20;;;;;;5054610;28;20213;-64
2021/03/23 02:34:45;;;;;;;11.30;7.73;;;8.00;99.20;;;;;;5054966;28;20216;-64
2021/03/23 02:37:12;;;;;;;16.20;8.33;;;8.10;99.30;;;;;;5055086;28;20252;-64
2021/03/23 02:39:39;;;;;;;13.03;8.23;;;8.10;99.30;;;;;;5055088;28;20276;-64
2021/03/23 02:42:07;;;;;;;12.70;7.80;;;8.10;99.30;;;;;;5055161;28;20240;-64
2021/03/23 02:44:38;;;;;;;11.57;7.80;;;8.10;99.30;;;;;;5054733;28;20210;-64
2021/03/23 02:47:05;;;;;;;13.37;7.73;;;8.10;99.30;;;;;;5054968;28;20226;-64
2021/03/23 02:49:31;;;;;;;13.07;8.13;;;8.10;99.20;;;;;;5054614;28;20233;-64
2021/03/23 02:51:57;;;;;;;13.43;8.53;;;8.00;99.40;;;;;;5054700;28;20205;-64
2021/03/23 02:54:23;;;;;;;15.30;8.23;;;8.00;99.40;;;;;;5054457;28;20205;-64
2021/03/23 02:56:50;;;;;;;14.57;7.70;;;8.00;99.50;;;;;;5054733;28;20229;-65
2021/03/23 02:59:17;;;;;;;17.37;8.87;;;7.90;99.50;;;;;;5054378;28;20205;-64
2021/03/23 03:01:43;;;;;;;14.37;8.83;;;8.00;99.60;;;;;;5055153;28;20228;-64
2021/03/23 03:04:09;;;;;;;14.37;8.90;;;8.00;99.50;;;;;;5054273;28;20202;-64
2021/03/23 03:06:35;;;;;;;14.37;8.97;;;7.90;99.40;;;;;;5090609;23;20772;-58
2021/03/23 03:09:01;;;;;;;16.20;9.10;;;8.00;99.60;;;;;;5093455;28;20239;-58
2021/03/23 03:11:28;;;;;;;14.67;8.73;;;8.00;99.60;;;;;;5093512;28;20208;-58
2021/03/23 03:13:55;;;;;;;15.27;8.83;;;8.00;99.60;;;;;;5093157;28;20204;-58
2021/03/23 03:16:22;;;;;;;15.03;9.60;;;8.00;99.60;;;;;;5099486;28;20628;-59
2021/03/23 03:18:48;;;;;;;14.73;9.40;;;8.00;99.50;;;;;;5113895;28;20203;-58
2021/03/23 03:21:14;;;;;;;16.13;9.47;;;8.00;99.60;;;;;;5113948;28;20207;-58
2021/03/23 03:23:40;;;;;;;18.17;9.33;;;7.90;99.60;;;;;;5113713;28;20266;-58
2021/03/23 03:26:07;;;;;;;14.63;9.40;;;8.00;99.60;;;;;;5113274;28;20224;-58
2021/03/23 03:28:35;;;;;;;16.90;9.40;;;7.90;99.60;;;;;;5113691;28;20269;-58
2021/03/23 03:31:02;;;;;;;16.30;9.47;;;7.90;99.60;;;;;;5113659;28;20210;-58
2021/03/23 03:33:29;;;;;;;15.70;9.60;;;7.90;99.60;;;;;;5113682;28;20584;-58
2021/03/23 03:35:55;;;;;;;16.83;9.57;;;7.90;99.60;;;;;;5113299;27;20212;-58
2021/03/23 03:38:25;;;;;;;17.10;9.30;;;7.90;99.70;;;;;;5113490;28;20196;-58
2021/03/23 03:40:53;;;;;;;16.67;9.50;;;7.90;99.80;;;;;;5113481;28;20207;-58
2021/03/23 03:43:22;;;;;;;16.63;10.07;;;7.90;99.70;;;;;;5113447;28;20222;-58
2021/03/23 03:45:48;;;;;;;20.10;10.50;;;7.90;99.80;;;;;;5113591;27;20200;-58
2021/03/23 03:48:15;;;;;;;17.80;10.83;;;7.80;99.80;;;;;;5113056;28;20309;-58
2021/03/23 03:50:42;;;;;;;16.10;9.57;;;7.80;99.80;;;;;;5113224;28;20203;-58
2021/03/23 03:53:09;;;;;;;17.50;10.00;;;7.80;99.80;;;;;;5113118;28;20203;-58
2021/03/23 03:55:37;;;;;;;20.07;10.17;;;7.80;99.70;;;;;;5112714;28;20203;-58
2021/03/23 03:58:04;;;;;;;16.43;9.90;;;7.80;99.80;;;;;;5112911;28;20222;-58
2021/03/23 04:00:32;;;;;;;19.87;10.57;;;7.80;99.80;;;;;;5113163;28;20803;-58
2021/03/23 04:02:59;;;;;;;14.50;10.10;;;7.80;99.80;;;;;;5112990;28;20371;-58
2021/03/23 04:05:28;;;;;;;18.53;10.67;;;7.80;99.80;;;;;;5112722;27;20210;-58
2021/03/23 04:07:55;;;;;;;17.97;10.73;;;7.80;99.80;;;;;;5112370;28;20239;-58
2021/03/23 04:10:22;;;;;;;17.67;10.43;;;7.80;99.80;;;;;;5112782;28;20616;-58
2021/03/23 04:12:49;;;;;;;18.10;9.83;;;7.80;99.80;;;;;;5112718;28;20211;-58
2021/03/23 04:15:18;;;;;;;16.43;10.13;;;7.90;99.80;;;;;;5112579;28;20207;-58
2021/03/23 04:17:44;;;;;;;18.53;10.57;;;7.90;99.80;;;;;;5112417;28;20227;-58
2021/03/23 04:20:12;;;;;;;18.60;10.47;;;7.90;99.70;;;;;;5112351;28;20258;-58
2021/03/23 04:22:40;;;;;;;18.07;10.80;;;7.90;99.80;;;;;;5112131;28;20215;-58
2021/03/23 04:25:07;;;;;;;18.23;10.17;;;7.90;99.80;;;;;;5112884;28;20210;-58
2021/03/23 04:27:34;;;;;;;18.23;10.43;;;7.90;99.80;;;;;;5113185;28;20238;-58
2021/03/23 04:30:00;;;;;;;21.63;11.57;;;7.90;99.80;;;;;;5113214;28;20211;-58
2021/03/23 04:32:26;;;;;;;17.07;10.80;;;8.00;99.80;;;;;;5112259;28;20207;-58
2021/03/23 04:34:52;;;;;;;17.23;10.63;;;8.00;99.70;;;;;;5112628;28;20211;-58
2021/03/23 04:37:18;;;;;;;18.87;10.73;;;8.10;99.70;;;;;;5111983;28;20648;-58
2021/03/23 04:39:46;;;;;;;19.37;11.03;;;8.10;99.70;;;;;;5111915;28;20287;-59
2021/03/23 04:42:12;;;;;;;21.53;11.23;;;8.10;99.60;;;;;;5112338;28;20336;-58
2021/03/23 04:44:38;;;;;;;18.73;12.93;;;8.10;99.70;;;;;;5112081;28;20220;-58
2021/03/23 04:47:05;;;;;;;22.07;12.53;;;8.10;99.80;;;;;;5112063;28;20250;-58
2021/03/23 04:49:31;;;;;;;22.97;13.47;;;8.10;99.90;;;;;;5112223;28;20234;-59
2021/03/23 04:51:58;;;;;;;21.23;12.43;;;8.20;99.90;;;;;;5111772;28;20213;-58
2021/03/23 04:54:24;;;;;;;17.57;12.13;;;8.10;99.90;;;;;;5112052;28;20249;-59
2021/03/23 04:56:51;;;;;;;16.43;11.23;;;8.20;99.90;;;;;;5111856;28;20231;-59
2021/03/23 04:59:18;;;;;;;19.30;12.63;;;8.20;99.80;;;;;;5111978;28;20245;-59
2021/03/23 05:01:44;;;;;;;21.27;12.80;;;8.20;99.70;;;;;;5111846;28;20207;-59
2021/03/23 05:04:14;;;;;;;20.37;12.87;;;8.20;99.70;;;;;;5111874;28;20211;-58
2021/03/23 05:06:40;;;;;;;22.30;12.30;;;8.20;99.70;;;;;;5111964;28;20234;-58
2021/03/23 05:09:07;;;;;;;20.10;12.57;;;8.20;99.70;;;;;;5111745;28;20223;-59
2021/03/23 05:11:33;;;;;;;21.87;12.30;;;8.10;99.40;;;;;;5112160;28;20288;-59
2021/03/23 05:14:01;;;;;;;25.07;14.17;;;8.10;99.40;;;;;;5111777;28;20203;-59
2021/03/23 05:16:29;;;;;;;18.43;11.83;;;8.10;99.40;;;;;;5111672;28;20699;-59
2021/03/23 05:18:56;;;;;;;18.50;11.70;;;8.10;99.40;;;;;;5111539;28;20634;-59
2021/03/23 05:21:22;;;;;;;18.57;11.67;;;8.10;99.30;;;;;;5111487;28;20684;-59
2021/03/23 05:23:49;;;;;;;23.57;12.23;;;8.00;99.30;;;;;;5111651;28;20210;-59
2021/03/23 05:26:15;;;;;;;22.47;11.73;;;8.00;99.40;;;;;;5111667;28;20687;-59
2021/03/23 05:28:46;;;;;;;19.67;12.03;;;8.00;99.40;;;;;;5111341;28;20220;-59
2021/03/23 05:31:14;;;;;;;21.37;11.97;;;8.00;99.40;;;;;;5111396;28;20289;-59
2021/03/23 05:33:41;;;;;;;25.50;14.97;;;8.00;99.40;;;;;;5111142;28;20218;-59
2021/03/23 05:36:08;;;;;;;27.73;16.67;;;7.90;99.40;;;;;;5111198;28;20220;-59
2021/03/23 05:38:34;;;;;;;28.13;14.03;;;8.00;99.50;;;;;;5111298;28;20203;-59
2021/03/23 05:41:03;;;;;;;19.17;12.00;;;8.00;99.50;;;;;;5111229;28;20731;-59
2021/03/23 05:43:58;;;;;;;20.63;12.53;;;8.00;99.40;;;;;;5111141;28;20210;-59
2021/03/23 05:46:30;;;;;;;20.57;12.10;;;8.00;99.50;;;;;;5097852;28;20698;-60
2021/03/23 05:49:28;;;;;;;22.87;12.50;;;8.00;99.40;;;;;;5112168;28;20219;-58
2021/03/23 05:52:00;;;;;;;23.87;12.17;;;8.10;99.40;;;;;;5109965;28;20575;-58
2021/03/23 05:54:39;;;;;;;20.87;12.13;;;8.10;99.40;;;;;;5116042;28;20211;-58
2021/03/23 05:57:16;;;;;;;19.80;11.53;;;8.10;99.30;;;;;;5115430;28;20231;-59
2021/03/23 05:59:47;;;;;;;21.60;12.80;;;8.10;99.30;;;;;;5115265;28;20290;-58
2021/03/23 06:02:23;;;;;;;22.03;12.77;;;8.10;99.20;;;;;;5115299;28;20207;-58
2021/03/23 06:04:55;;;;;;;19.60;12.90;;;8.10;99.30;;;;;;5114853;28;20675;-58
2021/03/23 06:07:21;;;;;;;21.23;11.97;;;8.20;99.30;;;;;;5115099;28;20239;-60
2021/03/23 06:09:47;;;;;;;35.17;16.03;;;8.20;99.30;;;;;;5115071;28;20227;-59
2021/03/23 06:12:24;;;;;;;21.73;12.83;;;8.20;99.10;;;;;;5115063;28;20204;-58
2021/03/23 06:14:58;;;;;;;24.20;13.00;;;8.20;99.10;;;;;;5114769;28;20207;-59
2021/03/23 06:17:43;;;;;;;23.27;12.23;;;8.30;99.20;;;;;;5114625;28;20261;-58
2021/03/23 06:20:30;;;;;;;25.37;13.00;;;8.30;99.10;;;;;;5115108;28;20214;-58
2021/03/23 06:23:10;;;;;;;19.93;12.53;;;8.30;99.00;;;;;;5114967;28;20203;-58
2021/03/23 06:25:41;;;;;;;20.40;11.23;;;8.40;99.20;;;;;;5114654;28;20199;-58
2021/03/23 06:28:22;;;;;;;18.40;12.83;;;8.40;99.20;;;;;;5114973;28;20316;-58
2021/03/23 06:30:54;;;;;;;20.90;12.63;;;8.50;99.20;;;;;;5115985;28;20199;-58
2021/03/23 06:33:24;;;;;;;23.20;13.50;;;8.50;99.00;;;;;;5115805;28;20297;-58
2021/03/23 06:35:55;;;;;;;23.27;14.20;;;8.60;99.00;;;;;;5114800;28;20207;-59
2021/03/23 06:38:27;;;;;;;21.20;13.57;;;8.60;98.80;;;;;;5114186;28;20203;-58
2021/03/23 06:41:21;;;;;;;19.87;13.17;;;8.70;98.80;;;;;;5114666;28;20215;-59
2021/03/23 06:43:50;;;;;;;21.97;12.73;;;8.70;98.70;;;;;;5114166;28;20750;-59
2021/03/23 06:46:28;;;;;;;24.27;13.03;;;8.80;98.60;;;;;;5114164;28;20235;-58
2021/03/23 06:49:06;;;;;;;21.50;13.77;;;8.80;98.40;;;;;;5115255;28;20325;-59
2021/03/23 06:51:32;;;;;;;22.73;12.80;;;8.70;98.50;;;;;;5114523;28;20242;-58
2021/03/23 06:54:16;;;;;;;20.53;12.80;;;8.70;98.50;;;;;;5114031;28;20200;-57
2021/03/23 06:56:44;;;;;;;23.67;13.10;;;8.60;98.60;;;;;;5114135;28;20246;-59
2021/03/23 06:59:14;;;;;;;20.67;12.93;;;8.70;98.60;;;;;;5114669;28;20226;-60
2021/03/23 07:01:42;;;;;;;23.47;13.17;;;8.70;98.50;;;;;;5113975;28;20257;-60
2021/03/23 07:04:24;;;;;;;23.57;12.93;;;9.00;98.30;;;;;;5114087;28;20685;-60
2021/03/23 07:07:13;;;;;;;23.37;12.93;;;9.10;98.20;;;;;;5114050;28;20238;-59
2021/03/23 07:09:48;;;;;;;26.13;13.70;;;9.40;97.80;;;;;;5114084;28;20224;-58
2021/03/23 07:12:15;;;;;;;23.63;14.07;;;9.50;97.50;;;;;;5113978;28;20230;-60
2021/03/23 07:14:43;;;;;;;47.53;26.57;;;9.50;97.40;;;;;;5113826;27;20659;-60
2021/03/23 07:17:27;;;;;;;23.50;15.43;;;9.60;97.50;;;;;;5114082;28;20239;-60
2021/03/23 07:19:58;;;;;;;25.77;15.50;;;9.70;97.40;;;;;;5116697;28;20290;-61
2021/03/23 07:22:44;;;;;;;35.07;20.67;;;9.90;97.00;;;;;;5119778;28;20206;-63
2021/03/23 07:25:32;;;;;;;23.03;14.77;;;9.90;97.00;;;;;;5123585;28;20838;-63
2021/03/23 07:28:19;;;;;;;25.53;15.40;;;10.00;96.50;;;;;;5113352;28;20223;-62
2021/03/23 07:30:49;;;;;;;21.27;15.13;;;10.10;96.20;;;;;;5114010;28;20578;-65
2021/03/23 07:33:20;;;;;;;24.20;15.03;;;10.20;96.00;;;;;;5113752;28;20207;-64
2021/03/23 07:35:51;;;;;;;25.63;14.97;;;10.30;95.90;;;;;;5113551;28;20203;-64
2021/03/23 07:38:27;;;;;;;23.97;15.07;;;10.30;95.90;;;;;;5113382;28;20529;-64
2021/03/23 07:40:55;;;;;;;36.43;21.50;;;10.40;95.90;;;;;;5113151;28;20561;-62
2021/03/23 07:43:39;;;;;;;30.83;19.27;;;10.50;95.80;;;;;;5113364;28;20207;-64
2021/03/23 07:46:12;;;;;;;28.33;15.93;;;10.40;95.70;;;;;;5113455;28;20224;-63
2021/03/23 07:48:46;;;;;;;29.60;16.20;;;10.50;95.70;;;;;;5113167;28;20223;-62
2021/03/23 07:51:30;;;;;;;27.70;16.27;;;10.50;95.70;;;;;;5113756;28;20191;-63
2021/03/23 07:54:04;;;;;;;25.97;17.40;;;10.50;95.70;;;;;;5113046;27;20640;-62
2021/03/23 07:56:46;;;;;;;27.83;17.93;;;10.60;95.60;;;;;;5113300;28;20219;-64
2021/03/23 07:59:24;;;;;;;27.47;18.70;;;10.70;95.40;;;;;;5113373;28;20222;-62
2021/03/23 08:01:55;;;;;;;33.03;19.80;;;10.80;95.40;;;;;;5113422;28;20407;-63
2021/03/23 08:04:39;;;;;;;27.17;18.50;;;10.70;95.10;;;;;;5113292;28;20187;-62
2021/03/23 08:07:17;;;;;;;31.87;19.03;;;10.70;95.20;;;;;;5113095;28;20234;-63
2021/03/23 08:09:59;;;;;;;28.27;18.17;;;10.60;95.40;;;;;;5113113;28;20222;-64
2021/03/23 08:12:57;;;;;;;30.73;18.23;;;10.70;95.20;;;;;;5112527;28;20211;-61
2021/03/23 08:15:36;;;;;;;30.83;18.30;;;10.80;95.10;;;;;;5086587;28;20215;-62
2021/03/23 08:18:24;;;;;;;30.27;19.03;;;10.90;94.80;;;;;;5112773;28;20226;-64
2021/03/23 08:21:08;;;;;;;24.67;17.07;;;11.00;94.60;;;;;;5103254;28;20248;-63
2021/03/23 08:23:52;;;;;;;31.43;19.23;;;11.00;94.50;;;;;;5112878;28;20188;-62
2021/03/23 08:26:24;;;;;;;34.10;19.00;;;11.00;94.60;;;;;;5112585;27;20771;-61
2021/03/23 08:29:03;;;;;;;29.83;18.90;;;11.00;94.60;;;;;;5112670;28;20223;-63
2021/03/23 08:31:43;;;;;;;34.07;19.17;;;11.10;94.40;;;;;;5112538;28;20816;-63
2021/03/23 08:34:40;;;;;;;28.73;18.83;;;11.20;94.40;;;;;;5150599;27;20873;-61
2021/03/23 08:37:35;;;;;;;25.93;18.20;;;11.30;94.30;;;;;;5150328;27;20229;-62
2021/03/23 08:40:09;;;;;;;33.03;19.47;;;11.50;94.10;;;;;;5150282;27;20221;-63
2021/03/23 08:42:37;;;;;;;28.73;18.43;;;11.50;93.90;;;;;;5150115;27;20304;-63
2021/03/23 08:45:08;;;;;;;30.43;18.90;;;11.80;93.80;;;;;;5150123;27;20562;-64
2021/03/23 08:47:39;;;;;;;32.10;20.30;;;12.00;93.50;;;;;;5150361;27;20624;-65
2021/03/23 08:50:17;;;;;;;29.47;18.50;;;12.20;93.20;;;;;;5150085;27;20697;-65
2021/03/23 08:52:45;;;;;;;27.60;18.37;;;12.10;93.10;;;;;;5150085;27;20222;-64
2021/03/23 08:55:44;;;;;;;25.73;17.07;;;12.30;92.90;;;;;;5150561;27;20210;-64
2021/03/23 08:58:14;;;;;;;28.07;17.70;;;12.40;92.50;;;;;;5150620;27;20202;-63
2021/03/23 09:00:58;;;;;;;23.43;16.73;;;12.30;92.40;;;;;;5150314;27;20203;-66
2021/03/23 09:03:43;;;;;;;25.63;17.23;;;12.20;92.30;;;;;;5149930;27;20210;-63
2021/03/23 09:06:14;;;;;;;26.10;17.83;;;12.00;92.50;;;;;;5149830;27;20265;-64
2021/03/23 09:08:46;;;;;;;24.70;17.20;;;11.90;92.90;;;;;;5150206;27;20662;-63
2021/03/23 09:11:57;;;;;;;25.87;16.87;;;11.90;92.90;;;;;;5150371;27;20247;-64
2021/03/23 09:14:24;;;;;;;25.43;17.23;;;12.10;93.10;;;;;;5143125;27;20235;-64
2021/03/23 09:17:19;;;;;;;26.80;16.70;;;12.30;92.70;;;;;;5150324;27;20222;-64
2021/03/23 09:19:56;;;;;;;31.20;17.77;;;12.70;92.30;;;;;;5149562;27;20202;-64
2021/03/23 09:22:33;;;;;;;25.33;16.40;;;13.00;91.90;;;;;;5149667;27;20197;-64
2021/03/23 09:25:48;;;;;;;23.07;15.60;;;13.20;91.40;;;;;;5149746;27;20554;-64
2021/03/23 09:28:44;;;;;;;20.93;14.40;;;13.20;91.20;;;;;;5149279;27;20214;-64
2021/03/23 09:31:16;;;;;;;23.97;15.73;;;13.30;91.00;;;;;;5149244;27;20206;-64
2021/03/23 09:33:48;;;;;;;22.20;14.97;;;13.60;90.80;;;;;;5148875;27;20218;-64
2021/03/23 09:36:43;;;;;;;22.83;15.50;;;13.80;90.40;;;;;;5149041;27;20245;-64
2021/03/23 09:39:36;;;;;;;24.83;16.67;;;13.90;90.10;;;;;;5148724;27;20203;-64
2021/03/23 09:42:31;;;;;;;23.23;14.67;;;14.20;89.40;;;;;;5148999;27;20206;-64
2021/03/23 09:45:34;;;;;;;22.37;14.43;;;14.40;88.00;;;;;;5139103;27;20228;-64
2021/03/23 09:48:30;;;;;;;22.77;14.13;;;14.60;86.70;;;;;;5135000;27;20631;-64
2021/03/23 09:51:04;;;;;;;15.83;10.23;;;14.80;86.70;;;;;;5134921;27;20206;-64
2021/03/23 09:53:35;;;;;;;21.17;11.83;;;15.00;83.80;;;;;;5134651;27;20217;-64
2021/03/23 09:56:12;;;;;;;15.93;11.70;;;14.90;83.10;;;;;;5134716;27;20222;-64
2021/03/23 09:58:39;;;;;;;13.77;10.20;;;14.80;84.20;;;;;;5134819;27;20206;-63
2021/03/23 10:01:11;;;;;;;18.83;11.30;;;14.80;82.60;;;;;;5134755;27;20210;-63
2021/03/23 10:03:38;;;;;;;13.60;10.47;;;14.60;83.40;;;;;;5134755;27;20206;-64
2021/03/23 10:06:07;;;;;;;15.97;10.77;;;14.60;83.90;;;;;;5134059;27;20583;-63
2021/03/23 10:08:35;;;;;;;15.80;10.20;;;14.80;83.00;;;;;;5134224;27;20248;-64
2021/03/23 10:11:11;;;;;;;13.43;10.17;;;15.10;81.20;;;;;;5134535;27;20251;-64
2021/03/23 10:13:43;;;;;;;18.30;10.43;;;15.30;80.50;;;;;;5134137;27;20226;-64
2021/03/23 10:16:25;;;;;;;15.70;10.33;;;15.40;80.60;;;;;;5134425;27;20222;-64
2021/03/23 10:18:51;;;;;;;14.97;10.23;;;15.60;79.80;;;;;;5133942;27;20658;-64
2021/03/23 10:21:22;;;;;;;13.93;10.30;;;15.70;79.40;;;;;;5134328;27;20228;-64
2021/03/23 10:23:51;;;;;;;11.40;7.43;;;16.00;78.50;;;;;;5134200;27;20207;-64
2021/03/23 10:26:18;;;;;;;10.90;7.03;;;16.20;75.60;;;;;;5134083;27;20318;-64
2021/03/23 10:28:48;;;;;;;9.37;6.80;;;16.30;72.50;;;;;;5133982;27;20199;-64
2021/03/23 10:31:28;;;;;;;9.17;6.80;;;16.20;72.10;;;;;;5133935;27;20203;-63
2021/03/23 10:34:05;;;;;;;7.70;5.83;;;15.90;71.40;;;;;;5133587;27;20222;-64
2021/03/23 10:36:42;;;;;;;10.33;7.03;;;15.40;72.10;;;;;;5136659;27;20223;-63
2021/03/23 10:39:27;;;;;;;8.90;6.40;;;15.60;73.40;;;;;;5136814;27;20202;-62
2021/03/23 10:41:55;;;;;;;8.40;6.20;;;15.80;69.90;;;;;;5131983;27;20203;-65
2021/03/23 10:44:24;;;;;;;10.80;8.33;;;15.70;69.60;;;;;;5133776;27;20207;-65
2021/03/23 10:46:52;;;;;;;10.60;7.50;;;15.60;71.60;;;;;;5133910;27;20464;-62
2021/03/23 10:49:29;;;;;;;10.20;7.00;;;15.50;71.70;;;;;;5133534;27;20270;-62
2021/03/23 10:51:57;;;;;;;10.53;7.77;;;15.40;72.20;;;;;;5133356;27;20211;-59
2021/03/23 10:54:27;;;;;;;12.67;7.80;;;15.40;72.80;;;;;;5132914;27;20215;-67
2021/03/23 10:56:56;;;;;;;10.43;7.73;;;15.40;72.30;;;;;;5132610;27;20334;-64
2021/03/23 10:59:31;;;;;;;12.47;7.30;;;14.90;73.60;;;;;;5133194;27;20229;-61
2021/03/23 11:02:00;;;;;;;11.23;8.00;;;14.50;74.40;;;;;;5133275;27;20285;-61
2021/03/23 11:04:28;;;;;;;11.13;7.37;;;13.90;75.80;;;;;;5133003;27;20241;-61
2021/03/23 11:06:54;;;;;;;12.87;7.77;;;13.50;76.90;;;;;;5132891;27;20226;-61
2021/03/23 11:09:21;;;;;;;12.93;8.13;;;13.50;77.50;;;;;;5133236;27;20203;-61
2021/03/23 11:11:49;;;;;;;9.40;6.50;;;13.40;77.70;;;;;;5133327;27;20251;-61
2021/03/23 11:14:18;;;;;;;10.50;6.67;;;13.30;76.20;;;;;;5132939;27;20258;-61
2021/03/23 11:16:45;;;;;;;9.53;6.97;;;13.30;75.30;;;;;;5133104;27;20230;-61
2021/03/23 11:19:20;;;;;;;9.93;7.33;;;13.40;75.50;;;;;;5132890;27;20198;-61
2021/03/23 11:21:46;;;;;;;11.73;6.40;;;13.30;75.30;;;;;;5133045;27;20221;-61
2021/03/23 11:24:12;;;;;;;9.33;6.47;;;13.30;75.90;;;;;;5133159;27;20206;-61
2021/03/23 11:26:43;;;;;;;9.17;6.90;;;13.40;75.90;;;;;;5132913;27;20231;-61
2021/03/23 11:29:10;;;;;;;11.97;6.80;;;13.30;75.40;;;;;;5132805;27;20259;-61
2021/03/23 11:31:37;;;;;;;11.47;7.90;;;13.40;75.70;;;;;;5132630;27;20301;-61
2021/03/23 11:34:04;;;;;;;10.37;7.47;;;13.50;75.70;;;;;;5132300;27;20233;-61
2021/03/23 11:36:31;;;;;;;13.47;9.00;;;13.50;76.10;;;;;;5132755;27;20280;-62
2021/03/23 11:38:58;;;;;;;11.10;8.30;;;13.60;76.30;;;;;;5132409;27;20249;-61
2021/03/23 11:41:27;;;;;;;10.27;7.70;;;13.50;76.70;;;;;;5132483;27;20222;-61
2021/03/23 11:43:58;;;;;;;11.03;7.90;;;13.20;76.30;;;;;;5132226;27;20203;-61
2021/03/23 11:46:28;;;;;;;11.33;8.30;;;12.80;76.70;;;;;;5132301;27;20272;-61
2021/03/23 11:49:07;;;;;;;16.27;11.63;;;12.50;78.40;;;;;;5132627;27;20202;-61
2021/03/23 11:51:34;;;;;;;7.93;6.37;;;12.40;78.70;;;;;;5132950;27;20207;-61
2021/03/23 11:54:01;;;;;;;7.77;5.43;;;12.50;76.10;;;;;;5132514;27;20222;-61
2021/03/23 11:56:28;;;;;;;11.10;7.17;;;12.60;75.20;;;;;;5132500;27;20718;-61
2021/03/23 11:58:55;;;;;;;9.23;7.47;;;12.70;76.40;;;;;;5132376;27;20203;-60
2021/03/23 12:01:24;;;;;;;10.10;7.50;;;12.80;76.20;;;;;;5132961;27;20342;-60
2021/03/23 12:03:51;;;;;;;12.27;8.10;;;12.90;75.90;;;;;;5132612;27;20206;-60
2021/03/23 12:06:21;;;;;;;15.27;7.87;;;13.00;76.00;;;;;;5132283;27;20223;-60
2021/03/23 12:08:53;;;;;;;12.07;8.47;;;13.10;75.70;;;;;;5132042;27;20217;-60
2021/03/23 12:11:31;;;;;;;11.63;8.80;;;13.20;75.80;;;;;;5133073;27;20207;-61
2021/03/23 12:14:20;;;;;;;15.07;10.03;;;13.40;76.90;;;;;;5132335;27;20226;-61
2021/03/23 12:16:56;;;;;;;16.83;10.30;;;13.30;77.00;;;;;;5132589;27;20616;-61
2021/03/23 12:19:25;;;;;;;14.37;10.17;;;13.10;78.10;;;;;;5132479;27;20210;-61
2021/03/23 12:21:53;;;;;;;17.83;11.20;;;13.10;78.70;;;;;;5132265;27;20203;-61
2021/03/23 12:24:22;;;;;;;17.07;11.83;;;12.90;80.40;;;;;;5132054;27;20547;-61
2021/03/23 12:26:49;;;;;;;17.47;11.63;;;12.70;81.00;;;;;;5132356;27;20712;-61
2021/03/23 12:29:16;;;;;;;16.23;11.47;;;12.40;81.40;;;;;;5132025;27;20460;-61
2021/03/23 12:31:42;;;;;;;15.20;10.20;;;12.30;81.70;;;;;;5132088;27;20199;-61
2021/03/23 12:34:09;;;;;;;17.27;10.57;;;12.30;81.50;;;;;;5131741;27;20615;-61
2021/03/23 12:36:35;;;;;;;14.00;10.10;;;12.30;80.70;;;;;;5131913;27;20223;-59
2021/03/23 12:39:04;;;;;;;13.47;9.63;;;12.40;80.20;;;;;;5131921;27;20207;-60
2021/03/23 12:41:32;;;;;;;14.23;9.43;;;12.50;78.80;;;;;;5132467;27;20213;-61
2021/03/23 12:43:59;;;;;;;11.73;8.40;;;12.60;78.90;;;;;;5132683;27;20196;-60
2021/03/23 12:46:25;;;;;;;14.77;9.43;;;12.50;76.70;;;;;;5132089;27;20250;-61
2021/03/23 12:48:51;;;;;;;11.63;7.90;;;12.40;77.50;;;;;;5131911;27;20198;-60
2021/03/23 12:51:23;;;;;;;10.70;7.83;;;12.50;76.10;;;;;;5132106;27;20207;-61
2021/03/23 12:53:50;;;;;;;11.70;7.87;;;12.40;75.70;;;;;;5131586;27;20246;-60
2021/03/23 12:56:19;;;;;;;12.67;9.40;;;12.60;75.80;;;;;;5132213;27;20225;-60
2021/03/23 12:58:45;;;;;;;11.47;9.13;;;12.80;76.50;;;;;;5131759;27;20203;-61
2021/03/23 13:01:12;;;;;;;11.97;8.83;;;12.80;76.40;;;;;;5131781;27;20203;-60